Portada
METAR-TAF:

METAR-TAF

Aeropuertos :

Sallisaw, Oklahoma, Estados Unidos

latitud: 35-26-17N, longitud: 094-48-10W, altitud: 161 m

Observación

El informe se hizo hace 19 minutos, a las 08:15 UTC
Viento calma
Temperatura 24°C
Humedad 89%
Presión 1015 hPa
Visibilidad: 16.1 km
Nubes dispersas a una altura de 6000 ft

METAR: KJSV 060815Z AUTO 00000KT 10SM SCT060 24/22 A2996 RMK AO2

Hora: 03:34 (08:34 UTC)


TAF: falta

Observaciones y pronósticos meteorológicos de más de 4000 aeropuertos (mensajes METAR y TAF).

Los puntos amarillos y rojos representan las estaciones disponibles.

Ponga el ratón en el punto deseado para ver el nombre de la estación.

Haga clic para ver las observaciones y los pronósticos meteorológicos.

Para cambiar el mapa : haga clic en los botones verdes con una cruz de color negro para hacer un zoom, en el botón verde con un guión para alejar o en las flechas verdes para mapas adyacentes.


METAR-TAF: